createdAt,value
2018-12-29T00:00:12.517Z,27.93
2018-12-29T00:02:42.508Z,30.43
2018-12-29T00:05:10.970Z,34.53
2018-12-29T00:07:39.440Z,30.73
2018-12-29T00:10:07.913Z,28.17
2018-12-29T00:12:36.358Z,26.87
2018-12-29T00:15:05.359Z,26.47
2018-12-29T00:17:33.803Z,26.80
2018-12-29T00:20:02.274Z,29.23
2018-12-29T00:22:30.716Z,27.67
2018-12-29T00:24:59.180Z,27.60
2018-12-29T00:27:27.628Z,28.00
2018-12-29T00:29:56.141Z,30.30
2018-12-29T00:32:24.581Z,29.33
2018-12-29T00:34:53.051Z,29.43
2018-12-29T00:37:21.513Z,30.87
2018-12-29T00:39:49.987Z,27.13
2018-12-29T00:42:18.435Z,27.00
2018-12-29T00:44:46.889Z,26.67
2018-12-29T00:47:15.337Z,28.03
2018-12-29T00:49:43.837Z,32.00
2018-12-29T00:52:12.285Z,26.57
2018-12-29T00:54:41.031Z,28.80
2018-12-29T00:57:09.492Z,27.90
2018-12-29T00:59:37.932Z,27.63
2018-12-29T01:02:06.400Z,30.57
2018-12-29T01:04:34.843Z,27.43
2018-12-29T01:07:03.296Z,32.30
2018-12-29T01:09:31.745Z,34.13
2018-12-29T01:12:00.331Z,33.30
2018-12-29T01:14:28.788Z,33.87
2018-12-29T01:16:57.258Z,33.57
2018-12-29T01:19:25.726Z,35.67
2018-12-29T01:21:54.170Z,36.53
2018-12-29T01:24:22.633Z,33.37
2018-12-29T01:26:51.102Z,34.17
2018-12-29T01:29:19.547Z,33.67
2018-12-29T01:31:48.007Z,35.27
2018-12-29T01:34:16.449Z,35.63
2018-12-29T01:36:44.918Z,33.53
2018-12-29T01:39:13.372Z,36.73
2018-12-29T01:41:41.840Z,33.73
2018-12-29T01:44:10.286Z,34.07
2018-12-29T01:46:38.733Z,41.70
2018-12-29T01:49:07.170Z,35.43
2018-12-29T01:51:35.651Z,36.73
2018-12-29T01:54:04.089Z,36.67
2018-12-29T01:56:32.539Z,37.43
2018-12-29T01:59:00.996Z,37.17
2018-12-29T02:01:29.469Z,45.23
2018-12-29T02:03:57.937Z,41.00
2018-12-29T02:06:26.419Z,38.67
2018-12-29T02:08:55.137Z,40.93
2018-12-29T02:11:23.634Z,42.17
2018-12-29T02:13:52.071Z,42.40
2018-12-29T02:16:20.529Z,44.37
2018-12-29T02:18:48.973Z,43.17
2018-12-29T02:21:17.427Z,43.57
2018-12-29T02:23:45.898Z,44.70
2018-12-29T02:26:14.385Z,42.90
2018-12-29T02:28:42.851Z,39.97
2018-12-29T02:31:11.279Z,38.90
2018-12-29T02:33:39.735Z,40.73
2018-12-29T02:36:08.179Z,42.83
2018-12-29T02:38:36.629Z,44.97
2018-12-29T02:41:05.065Z,41.33
2018-12-29T02:43:33.525Z,45.53
2018-12-29T02:46:02.031Z,42.53
2018-12-29T02:48:30.495Z,36.67
2018-12-29T02:50:58.963Z,40.93
2018-12-29T02:53:27.444Z,37.77
2018-12-29T02:55:55.893Z,45.90
2018-12-29T02:58:24.342Z,44.10
2018-12-29T03:00:52.798Z,42.97
2018-12-29T03:03:21.254Z,38.47
2018-12-29T03:05:49.691Z,42.10
2018-12-29T03:08:18.169Z,46.70
2018-12-29T03:10:46.623Z,43.90
2018-12-29T03:13:15.137Z,39.77
2018-12-29T03:15:43.584Z,41.80
2018-12-29T03:18:12.051Z,37.47
2018-12-29T03:20:40.506Z,42.47
2018-12-29T03:23:08.967Z,39.13
2018-12-29T03:25:37.447Z,43.80
2018-12-29T03:28:05.891Z,40.77
2018-12-29T03:30:34.355Z,38.77
2018-12-29T03:33:02.828Z,39.17
2018-12-29T03:35:31.256Z,38.93
2018-12-29T03:37:59.703Z,40.70
2018-12-29T03:40:28.526Z,44.30
2018-12-29T03:42:56.962Z,39.87
2018-12-29T03:45:25.416Z,39.23
2018-12-29T03:47:53.859Z,39.57
2018-12-29T03:50:22.312Z,37.53
2018-12-29T03:52:50.754Z,41.50
2018-12-29T03:55:19.230Z,44.97
2018-12-29T03:57:47.666Z,43.40
2018-12-29T04:00:16.116Z,42.53
2018-12-29T04:02:44.558Z,42.20
2018-12-29T04:05:13.030Z,40.70
2018-12-29T04:07:41.476Z,43.07
2018-12-29T04:10:15.054Z,41.40
2018-12-29T04:12:46.184Z,40.47
2018-12-29T04:15:14.678Z,40.37
2018-12-29T04:17:43.102Z,42.97
2018-12-29T04:20:11.555Z,38.67
2018-12-29T04:22:40.012Z,43.10
2018-12-29T04:25:08.464Z,40.83
2018-12-29T04:27:36.922Z,40.37
2018-12-29T04:30:06.109Z,38.10
2018-12-29T04:32:34.555Z,36.63
2018-12-29T04:35:03.013Z,43.13
2018-12-29T04:37:31.487Z,40.70
2018-12-29T04:39:59.958Z,43.27
2018-12-29T04:42:28.418Z,41.47
2018-12-29T04:44:56.874Z,42.73
2018-12-29T04:47:25.319Z,41.17
2018-12-29T04:49:53.801Z,40.23
2018-12-29T04:52:22.238Z,42.63
2018-12-29T04:54:50.705Z,41.73
2018-12-29T04:57:19.158Z,43.93
2018-12-29T04:59:47.611Z,49.00
2018-12-29T05:02:16.059Z,44.73
2018-12-29T05:04:44.501Z,44.63
2018-12-29T05:07:12.971Z,47.73
2018-12-29T05:09:41.413Z,47.87
2018-12-29T05:12:09.861Z,49.03
2018-12-29T05:14:38.309Z,44.10
2018-12-29T05:17:06.797Z,45.47
2018-12-29T05:19:35.241Z,44.60
2018-12-29T05:22:03.695Z,38.20
2018-12-29T05:24:32.149Z,41.47
2018-12-29T05:27:00.659Z,46.40
2018-12-29T05:29:29.103Z,47.57
2018-12-29T05:31:57.579Z,40.77
2018-12-29T05:34:27.682Z,46.17
2018-12-29T05:36:56.165Z,42.93
2018-12-29T05:39:24.610Z,43.63
2018-12-29T05:41:53.076Z,43.30
2018-12-29T05:44:21.522Z,45.67
2018-12-29T05:46:49.994Z,41.23
2018-12-29T05:49:18.448Z,42.17
2018-12-29T05:51:46.885Z,42.60
2018-12-29T05:54:15.362Z,40.90
2018-12-29T05:56:43.831Z,38.33
2018-12-29T05:59:12.282Z,42.50
2018-12-29T06:01:40.916Z,42.70
2018-12-29T06:04:09.358Z,40.03
2018-12-29T06:06:37.804Z,43.53
2018-12-29T06:09:06.878Z,41.80
2018-12-29T06:11:35.344Z,48.13
2018-12-29T06:14:03.775Z,41.23
2018-12-29T06:16:32.254Z,42.13
2018-12-29T06:19:00.709Z,40.10
2018-12-29T06:21:29.164Z,40.13
2018-12-29T06:23:57.642Z,42.33
2018-12-29T06:26:26.098Z,42.73
2018-12-29T06:28:54.547Z,42.93
2018-12-29T06:31:22.998Z,42.70
2018-12-29T06:33:51.511Z,38.63
2018-12-29T06:36:20.001Z,45.93
2018-12-29T06:38:48.473Z,45.33
2018-12-29T06:41:16.918Z,45.37
2018-12-29T06:43:45.397Z,42.13
2018-12-29T06:46:13.839Z,48.50
2018-12-29T06:48:42.327Z,45.43
2018-12-29T06:51:10.777Z,43.73
2018-12-29T06:53:39.282Z,41.90
2018-12-29T06:56:07.728Z,41.20
2018-12-29T06:58:36.184Z,47.10
2018-12-29T07:01:04.642Z,41.90
2018-12-29T07:03:33.104Z,46.77
2018-12-29T07:06:01.562Z,47.30
2018-12-29T07:08:30.039Z,52.07
2018-12-29T07:10:58.492Z,49.30
2018-12-29T07:13:26.958Z,47.70
2018-12-29T07:15:55.413Z,51.03
2018-12-29T07:18:23.887Z,51.30
2018-12-29T07:20:52.342Z,47.23
2018-12-29T07:23:20.857Z,46.07
2018-12-29T07:25:49.311Z,50.10
2018-12-29T07:28:17.796Z,49.77
2018-12-29T07:30:46.242Z,47.03
2018-12-29T07:33:14.690Z,48.83
2018-12-29T07:35:43.148Z,49.63
2018-12-29T07:38:11.589Z,49.23
2018-12-29T07:40:40.056Z,52.03
2018-12-29T07:43:08.488Z,49.33
2018-12-29T07:45:36.955Z,51.83
2018-12-29T07:48:05.391Z,46.93
2018-12-29T07:50:33.835Z,51.70
2018-12-29T07:53:02.323Z,50.97
2018-12-29T07:55:30.815Z,46.47
2018-12-29T07:57:59.266Z,52.83
2018-12-29T08:00:27.717Z,49.10
2018-12-29T08:02:56.170Z,54.23
2018-12-29T08:05:24.625Z,51.83
2018-12-29T08:07:53.093Z,46.10
2018-12-29T08:10:21.566Z,50.33
2018-12-29T08:12:50.011Z,46.00
2018-12-29T08:15:18.508Z,47.10
2018-12-29T08:17:46.919Z,45.43
2018-12-29T08:20:15.383Z,46.17
2018-12-29T08:22:43.837Z,44.73
2018-12-29T08:25:12.416Z,47.90
2018-12-29T08:27:40.865Z,44.37
2018-12-29T08:30:09.336Z,42.70
2018-12-29T08:32:37.794Z,43.87
2018-12-29T08:35:06.597Z,48.60
2018-12-29T08:37:35.067Z,39.80
2018-12-29T08:40:03.729Z,48.20
2018-12-29T08:42:32.220Z,46.03
2018-12-29T08:45:00.709Z,40.73
2018-12-29T08:47:29.150Z,43.17
2018-12-29T08:49:57.615Z,40.27
2018-12-29T08:52:26.065Z,48.83
2018-12-29T08:54:54.513Z,42.87
2018-12-29T08:57:22.957Z,45.70
2018-12-29T08:59:51.441Z,47.23
2018-12-29T09:02:19.882Z,40.50
2018-12-29T09:04:48.321Z,46.37
2018-12-29T09:07:16.831Z,43.83
2018-12-29T09:09:45.279Z,50.10
2018-12-29T09:12:13.743Z,40.53
2018-12-29T09:14:42.187Z,48.87
2018-12-29T09:17:12.273Z,45.20
2018-12-29T09:19:41.003Z,46.47
2018-12-29T09:22:09.475Z,46.10
2018-12-29T09:24:37.915Z,44.43
2018-12-29T09:27:06.387Z,41.07
2018-12-29T09:29:34.838Z,44.37
2018-12-29T09:32:03.287Z,41.33
2018-12-29T09:34:31.741Z,41.00
2018-12-29T09:37:00.198Z,32.03
2018-12-29T09:39:28.643Z,34.53
2018-12-29T09:41:57.103Z,34.37
2018-12-29T09:44:25.568Z,40.00
2018-12-29T09:46:55.014Z,37.60
2018-12-29T09:49:23.552Z,33.63
2018-12-29T09:51:52.031Z,33.47
2018-12-29T09:54:20.473Z,33.33
2018-12-29T09:56:49.001Z,30.43
2018-12-29T09:59:17.463Z,31.03
2018-12-29T10:01:45.936Z,32.00
2018-12-29T10:04:14.382Z,29.03
2018-12-29T10:06:42.827Z,30.67
2018-12-29T10:09:11.287Z,28.23
2018-12-29T10:11:39.781Z,30.13
2018-12-29T10:14:08.223Z,30.10
2018-12-29T10:16:36.683Z,37.77
2018-12-29T10:19:05.126Z,34.87
2018-12-29T10:21:33.601Z,30.53
2018-12-29T10:24:02.035Z,32.17
2018-12-29T10:26:30.520Z,31.70
2018-12-29T10:28:58.972Z,30.67
2018-12-29T10:31:27.423Z,34.80
2018-12-29T10:33:55.870Z,29.57
2018-12-29T10:36:24.321Z,28.63
2018-12-29T10:38:52.810Z,28.83
2018-12-29T10:41:21.246Z,29.97
2018-12-29T10:43:49.714Z,31.87
2018-12-29T10:46:18.145Z,30.43
2018-12-29T10:48:46.697Z,29.40
2018-12-29T10:51:15.152Z,32.53
2018-12-29T10:53:43.610Z,35.50
2018-12-29T10:56:12.070Z,35.73
2018-12-29T10:58:40.544Z,34.40
2018-12-29T11:01:08.995Z,33.83
2018-12-29T11:03:37.465Z,35.40
2018-12-29T11:06:05.923Z,41.33
2018-12-29T11:08:34.391Z,33.53
2018-12-29T11:11:02.881Z,34.80
2018-12-29T11:13:31.395Z,32.57
2018-12-29T11:15:59.853Z,31.17
2018-12-29T11:18:28.310Z,27.00
2018-12-29T11:20:56.760Z,33.47
2018-12-29T11:23:25.241Z,32.67
2018-12-29T11:25:53.682Z,32.47
2018-12-29T11:28:22.167Z,34.07
2018-12-29T11:30:50.611Z,30.60
2018-12-29T11:33:19.067Z,30.80
2018-12-29T11:35:49.143Z,31.37
2018-12-29T11:38:17.607Z,32.30
2018-12-29T11:40:46.081Z,36.73
2018-12-29T11:43:14.564Z,33.33
2018-12-29T11:45:43.018Z,34.43
2018-12-29T11:48:11.494Z,32.60
2018-12-29T11:50:39.946Z,31.23
2018-12-29T11:53:08.406Z,32.03
2018-12-29T11:55:36.977Z,36.17
2018-12-29T11:58:05.467Z,32.93
2018-12-29T12:00:33.911Z,36.47
2018-12-29T12:03:02.348Z,31.87
2018-12-29T12:05:30.805Z,35.37
2018-12-29T12:07:59.255Z,36.40
2018-12-29T12:10:27.733Z,34.00
2018-12-29T12:12:56.197Z,33.77
2018-12-29T12:15:24.668Z,32.53
2018-12-29T12:17:57.408Z,32.70
2018-12-29T12:20:23.339Z,40.33
2018-12-29T12:22:51.816Z,29.67
2018-12-29T12:25:20.258Z,32.57
2018-12-29T12:27:49.012Z,33.40
2018-12-29T12:30:17.470Z,33.43
2018-12-29T12:32:45.937Z,32.17
2018-12-29T12:35:14.418Z,36.03
2018-12-29T12:37:42.861Z,36.23
2018-12-29T12:40:11.315Z,32.67
2018-12-29T12:42:39.775Z,31.37
2018-12-29T12:45:08.239Z,36.63
2018-12-29T12:47:36.708Z,30.23
2018-12-29T12:50:05.534Z,33.70
2018-12-29T12:52:34.380Z,33.63
2018-12-29T12:55:02.829Z,33.77
2018-12-29T12:57:31.271Z,40.23
2018-12-29T13:00:00.263Z,29.87
2018-12-29T13:02:29.008Z,34.03
2018-12-29T13:04:57.467Z,32.23
2018-12-29T13:07:25.917Z,31.10
2018-12-29T13:09:54.377Z,26.60
2018-12-29T13:12:22.839Z,29.03
2018-12-29T13:14:51.570Z,27.70
2018-12-29T13:17:20.029Z,30.30
2018-12-29T13:19:48.488Z,30.30
2018-12-29T13:22:16.962Z,31.33
2018-12-29T13:24:45.407Z,28.40
2018-12-29T13:27:14.071Z,31.10
2018-12-29T13:29:42.544Z,28.37
2018-12-29T13:32:11.013Z,34.20
2018-12-29T13:34:39.460Z,30.00
2018-12-29T13:37:07.916Z,29.70
2018-12-29T13:39:36.786Z,28.77
2018-12-29T13:42:05.301Z,34.07
2018-12-29T13:44:33.734Z,30.17
2018-12-29T13:47:02.209Z,32.73
2018-12-29T13:49:30.689Z,28.47
2018-12-29T13:51:59.330Z,29.03
2018-12-29T13:54:27.767Z,29.77
2018-12-29T13:56:56.215Z,26.97
2018-12-29T13:59:24.668Z,26.90
2018-12-29T14:01:53.120Z,26.03
2018-12-29T14:04:22.382Z,28.30
2018-12-29T14:06:50.855Z,30.83
2018-12-29T14:09:19.310Z,27.07
2018-12-29T14:11:47.781Z,29.60
2018-12-29T14:14:16.231Z,27.87
2018-12-29T14:16:44.694Z,29.67
2018-12-29T14:19:13.166Z,28.23
2018-12-29T14:21:41.640Z,32.03
2018-12-29T14:24:10.078Z,26.83
2018-12-29T14:26:38.572Z,30.53
2018-12-29T14:29:07.015Z,31.53
2018-12-29T14:31:35.531Z,33.13
2018-12-29T14:34:03.974Z,29.40
2018-12-29T14:36:32.432Z,31.10
2018-12-29T14:39:00.898Z,31.60
2018-12-29T14:41:29.393Z,30.40
2018-12-29T14:43:57.848Z,28.87
2018-12-29T14:46:26.317Z,29.13
2018-12-29T14:48:54.754Z,35.07
2018-12-29T14:51:23.195Z,30.90
2018-12-29T14:53:51.665Z,29.33
2018-12-29T14:56:20.125Z,29.93
2018-12-29T14:58:48.592Z,33.27
2018-12-29T15:01:17.033Z,31.63
2018-12-29T15:03:45.507Z,29.87
2018-12-29T15:06:13.939Z,32.30
2018-12-29T15:08:42.400Z,31.73
2018-12-29T15:11:10.852Z,29.10
2018-12-29T15:13:40.859Z,27.67
2018-12-29T15:16:09.297Z,30.10
2018-12-29T15:18:43.732Z,30.97
2018-12-29T15:21:07.969Z,34.73
2018-12-29T15:23:36.432Z,28.53
2018-12-29T15:26:04.873Z,30.57
2018-12-29T15:28:33.350Z,32.03
2018-12-29T15:31:01.792Z,29.87
2018-12-29T15:33:30.762Z,27.90
2018-12-29T15:35:59.209Z,30.17
2018-12-29T15:38:27.690Z,30.43
2018-12-29T15:40:56.404Z,30.47
2018-12-29T15:43:24.876Z,35.27
2018-12-29T15:45:53.325Z,32.37
2018-12-29T15:48:22.064Z,26.60
2018-12-29T15:50:50.533Z,27.87
2018-12-29T15:53:19.008Z,30.93
2018-12-29T15:55:47.465Z,29.67
2018-12-29T15:58:16.197Z,33.30
2018-12-29T16:00:44.696Z,27.90
2018-12-29T16:03:13.326Z,28.57
2018-12-29T16:05:41.798Z,31.17
2018-12-29T16:08:10.259Z,32.30
2018-12-29T16:10:38.725Z,26.67
2018-12-29T16:13:07.186Z,35.60
2018-12-29T16:15:35.663Z,29.30
2018-12-29T16:18:04.093Z,29.33
2018-12-29T16:20:32.653Z,24.30
2018-12-29T16:23:01.102Z,26.80
2018-12-29T16:25:29.568Z,25.47
2018-12-29T16:27:57.999Z,22.33
2018-12-29T16:30:26.840Z,23.30
2018-12-29T16:32:55.682Z,24.47
2018-12-29T16:35:24.146Z,23.30
2018-12-29T16:37:52.602Z,20.73
2018-12-29T16:40:21.085Z,22.80
2018-12-29T16:42:49.523Z,22.60
2018-12-29T16:45:18.212Z,21.50
2018-12-29T16:47:46.647Z,18.60
2018-12-29T16:50:15.121Z,22.97
2018-12-29T16:52:43.566Z,20.47
2018-12-29T16:55:12.431Z,16.93
2018-12-29T16:57:40.884Z,56.10
2018-12-29T17:00:09.475Z,16.93
2018-12-29T17:02:37.932Z,15.60
2018-12-29T17:05:06.653Z,17.43
2018-12-29T17:07:35.123Z,19.73
2018-12-29T17:10:04.035Z,14.43
2018-12-29T17:12:32.519Z,17.67
2018-12-29T17:15:01.451Z,14.57
2018-12-29T17:17:29.914Z,13.70
2018-12-29T17:19:58.388Z,17.37
2018-12-29T17:22:26.873Z,12.40
2018-12-29T17:24:55.317Z,12.63
2018-12-29T17:27:23.809Z,15.83
2018-12-29T17:29:52.441Z,14.20
2018-12-29T17:32:20.897Z,14.47
2018-12-29T17:34:49.351Z,15.03
2018-12-29T17:37:17.848Z,13.70
2018-12-29T17:39:46.377Z,13.23
2018-12-29T17:42:14.899Z,12.93
2018-12-29T17:44:43.415Z,13.87
2018-12-29T17:47:11.850Z,13.13
2018-12-29T17:49:40.297Z,12.63
2018-12-29T17:52:08.776Z,14.53
2018-12-29T17:54:37.223Z,16.20
2018-12-29T17:57:07.867Z,11.90
2018-12-29T17:59:36.341Z,15.00
2018-12-29T18:02:04.835Z,18.27
2018-12-29T18:04:33.562Z,18.53
2018-12-29T18:07:02.018Z,32.30
2018-12-29T18:09:30.484Z,20.33
2018-12-29T18:11:59.032Z,16.10
2018-12-29T18:14:27.562Z,60.97
2018-12-29T18:16:56.058Z,14.07
2018-12-29T18:19:30.545Z,11.77
2018-12-29T18:21:54.722Z,14.30
2018-12-29T18:24:23.183Z,30.10
2018-12-29T18:26:51.764Z,14.00
2018-12-29T18:29:20.244Z,15.50
2018-12-29T18:31:48.898Z,11.43
2018-12-29T18:34:17.364Z,12.53
2018-12-29T18:36:45.811Z,12.07
2018-12-29T18:39:14.269Z,16.03
2018-12-29T18:41:42.741Z,15.20
2018-12-29T18:44:11.482Z,14.60
2018-12-29T18:46:39.985Z,15.40
2018-12-29T18:49:08.479Z,18.40
2018-12-29T18:51:37.713Z,16.83
2018-12-29T18:54:06.181Z,12.87
2018-12-29T18:56:34.627Z,20.63
2018-12-29T18:59:03.101Z,17.90
2018-12-29T19:01:31.547Z,18.27
2018-12-29T19:04:00.045Z,23.33
2018-12-29T19:06:28.493Z,15.37
2018-12-29T19:08:56.954Z,17.70
2018-12-29T19:11:25.611Z,15.60
2018-12-29T19:13:54.069Z,18.67
2018-12-29T19:16:22.540Z,17.07
2018-12-29T19:18:51.009Z,15.70
2018-12-29T19:21:21.236Z,18.17
2018-12-29T19:23:50.085Z,20.10
2018-12-29T19:26:18.904Z,20.43
2018-12-29T19:28:47.785Z,21.20
2018-12-29T19:31:16.636Z,19.00
2018-12-29T19:33:45.087Z,21.13
2018-12-29T19:36:13.574Z,20.50
2018-12-29T19:38:42.047Z,21.70
2018-12-29T19:41:10.977Z,20.30
2018-12-29T19:43:39.440Z,19.40
2018-12-29T19:46:08.375Z,22.43
2018-12-29T19:48:36.868Z,28.07
2018-12-29T19:51:05.328Z,22.13
2018-12-29T19:53:34.212Z,28.90
2018-12-29T19:56:02.665Z,26.13
2018-12-29T19:58:31.137Z,22.60
2018-12-29T20:00:59.602Z,22.40
2018-12-29T20:03:28.113Z,26.23
2018-12-29T20:05:56.545Z,29.03
2018-12-29T20:08:25.051Z,30.07
2018-12-29T20:10:53.526Z,25.03
2018-12-29T20:13:22.025Z,26.53
2018-12-29T20:15:50.579Z,22.37
2018-12-29T20:18:19.093Z,26.73
2018-12-29T20:20:47.568Z,25.50
2018-12-29T20:23:16.294Z,29.40
2018-12-29T20:25:44.788Z,23.70
2018-12-29T20:28:14.713Z,24.23
2018-12-29T20:30:43.294Z,25.93
2018-12-29T20:33:11.749Z,27.67
2018-12-29T20:35:40.616Z,26.43
2018-12-29T20:38:09.099Z,31.17
2018-12-29T20:40:37.582Z,22.67
2018-12-29T20:43:06.162Z,27.30
2018-12-29T20:45:34.608Z,22.30
2018-12-29T20:48:03.082Z,24.90
2018-12-29T20:50:31.563Z,28.00
2018-12-29T20:53:00.015Z,24.60
2018-12-29T20:55:28.504Z,25.13
2018-12-29T20:57:56.978Z,26.87
2018-12-29T21:00:25.476Z,22.13
2018-12-29T21:02:54.405Z,26.23
2018-12-29T21:05:22.889Z,24.03
2018-12-29T21:07:51.329Z,22.87
2018-12-29T21:10:19.822Z,29.13
2018-12-29T21:12:48.286Z,19.40
2018-12-29T21:15:16.776Z,20.90
2018-12-29T21:17:45.252Z,20.17
2018-12-29T21:20:17.428Z,22.70
2018-12-29T21:22:43.971Z,21.77
2018-12-29T21:25:12.458Z,21.57
2018-12-29T21:27:40.931Z,18.37
2018-12-29T21:30:09.694Z,19.07
2018-12-29T21:32:38.169Z,21.70
2018-12-29T21:35:06.655Z,21.57
2018-12-29T21:37:35.121Z,19.37
2018-12-29T21:40:04.756Z,18.30
2018-12-29T21:42:33.264Z,17.93
2018-12-29T21:45:01.739Z,17.27
2018-12-29T21:47:30.230Z,17.60
2018-12-29T21:49:58.707Z,15.53
2018-12-29T21:52:27.231Z,17.77
2018-12-29T21:54:55.711Z,17.60
2018-12-29T21:57:24.181Z,16.47
2018-12-29T21:59:52.642Z,16.40
2018-12-29T22:02:21.158Z,17.40
2018-12-29T22:04:49.614Z,16.63
2018-12-29T22:07:18.095Z,16.57
2018-12-29T22:09:46.539Z,15.73
2018-12-29T22:12:15.401Z,18.57
2018-12-29T22:14:43.859Z,16.97
2018-12-29T22:17:12.424Z,20.07
2018-12-29T22:19:40.886Z,15.70
2018-12-29T22:22:09.527Z,16.70
2018-12-29T22:24:37.995Z,18.87
2018-12-29T22:27:06.469Z,17.97
2018-12-29T22:29:34.963Z,18.43
2018-12-29T22:32:03.449Z,14.50
2018-12-29T22:34:31.905Z,15.67
2018-12-29T22:37:00.368Z,13.77
2018-12-29T22:39:29.222Z,17.23
2018-12-29T22:41:59.163Z,15.20
2018-12-29T22:44:27.838Z,13.77
2018-12-29T22:46:56.370Z,16.83
2018-12-29T22:49:24.769Z,12.90
2018-12-29T22:51:53.217Z,13.80
2018-12-29T22:54:21.703Z,13.67
2018-12-29T22:56:50.178Z,11.37
2018-12-29T22:59:18.630Z,18.53
2018-12-29T23:01:47.079Z,14.67
2018-12-29T23:04:15.605Z,13.00
2018-12-29T23:06:44.062Z,13.70
2018-12-29T23:09:12.897Z,13.13
2018-12-29T23:11:41.360Z,14.13
2018-12-29T23:14:09.861Z,13.37
2018-12-29T23:16:39.820Z,12.40
2018-12-29T23:19:08.306Z,13.97
2018-12-29T23:21:36.773Z,12.63
2018-12-29T23:24:05.606Z,13.10
2018-12-29T23:26:34.049Z,13.33
2018-12-29T23:29:02.546Z,15.57
2018-12-29T23:31:31.055Z,20.13
2018-12-29T23:33:59.543Z,12.40
2018-12-29T23:36:27.979Z,12.43
2018-12-29T23:38:56.460Z,10.43
2018-12-29T23:41:24.935Z,11.70
2018-12-29T23:43:53.888Z,12.73
2018-12-29T23:46:22.329Z,12.63
2018-12-29T23:48:50.786Z,12.37
2018-12-29T23:51:19.225Z,12.47
2018-12-29T23:53:47.684Z,11.40
2018-12-29T23:56:16.570Z,11.93
2018-12-29T23:58:45.429Z,11.90
